createdAt,value
2023-03-24T00:04:58.623Z,1.70
2023-03-24T00:10:00.664Z,1.87
2023-03-24T00:15:04.966Z,1.80
2023-03-24T00:20:14.568Z,2.13
2023-03-24T00:25:20.236Z,1.73
2023-03-24T00:30:23.122Z,1.60
2023-03-24T00:35:25.270Z,2.00
2023-03-24T00:40:28.091Z,2.30
2023-03-24T00:45:34.759Z,2.23
2023-03-24T00:50:37.072Z,1.77
2023-03-24T00:55:39.248Z,1.77
2023-03-24T01:00:42.357Z,2.20
2023-03-24T01:05:48.307Z,1.93
2023-03-24T01:10:50.560Z,2.00
2023-03-24T01:15:54.309Z,1.83
2023-03-24T01:20:56.266Z,1.80
2023-03-24T01:25:58.444Z,1.80
2023-03-24T01:31:00.746Z,1.70
2023-03-24T01:36:02.914Z,1.93
2023-03-24T01:41:06.611Z,1.60
2023-03-24T01:46:21.848Z,1.80
2023-03-24T01:51:35.552Z,1.90
2023-03-24T01:56:41.693Z,2.10
2023-03-24T02:01:44.969Z,1.90
2023-03-24T02:07:26.486Z,2.33
2023-03-24T02:12:29.664Z,2.63
2023-03-24T02:17:57.569Z,2.33
2023-03-24T02:23:47.102Z,2.10
2023-03-24T02:29:04.955Z,1.53
2023-03-24T02:34:45.333Z,0.80
2023-03-24T02:40:11.542Z,0.80
2023-03-24T02:45:29.615Z,0.80
2023-03-24T02:50:56.717Z,1.00
2023-03-24T02:56:16.717Z,1.07
2023-03-24T03:01:31.663Z,1.13
2023-03-24T03:06:59.036Z,0.97
2023-03-24T03:12:04.912Z,0.80
2023-03-24T03:17:21.039Z,1.03
2023-03-24T03:22:28.938Z,1.30
2023-03-24T03:27:38.971Z,1.10
2023-03-24T03:32:54.384Z,1.00
2023-03-24T03:38:20.213Z,1.00
2023-03-24T03:43:24.130Z,1.70
2023-03-24T03:48:26.878Z,1.63
2023-03-24T03:53:36.801Z,1.40
2023-03-24T03:58:39.977Z,1.50
2023-03-24T04:04:20.357Z,2.13
2023-03-24T04:10:07.603Z,1.73
2023-03-24T04:15:36.690Z,1.60
2023-03-24T04:21:33.511Z,2.33
2023-03-24T04:26:54.730Z,1.67
2023-03-24T04:32:04.560Z,2.33
2023-03-24T04:37:16.392Z,1.97
2023-03-24T04:42:48.631Z,1.87
2023-03-24T04:47:57.256Z,1.90
2023-03-24T04:53:17.360Z,1.97
2023-03-24T04:58:21.918Z,1.90
2023-03-24T05:03:25.436Z,2.00
2023-03-24T05:08:27.636Z,2.27
2023-03-24T05:13:30.004Z,2.40
2023-03-24T05:18:36.532Z,2.47
2023-03-24T05:23:39.105Z,1.90
2023-03-24T05:28:41.004Z,2.50
2023-03-24T05:33:43.073Z,2.43
2023-03-24T05:38:49.673Z,2.67
2023-03-24T05:43:51.994Z,3.67
2023-03-24T05:48:54.868Z,2.27
2023-03-24T05:53:58.419Z,3.17
2023-03-24T05:59:06.884Z,3.07
2023-03-24T06:04:30.861Z,2.53
2023-03-24T06:09:42.439Z,2.43
2023-03-24T06:14:47.316Z,2.40
2023-03-24T06:19:49.871Z,3.00
2023-03-24T06:25:15.242Z,1.70
2023-03-24T06:30:23.004Z,3.10
2023-03-24T06:35:25.932Z,2.40
2023-03-24T06:40:40.583Z,2.43
2023-03-24T06:45:45.738Z,2.57
2023-03-24T06:50:54.922Z,2.50
2023-03-24T06:55:57.801Z,2.30
2023-03-24T07:01:02.680Z,2.00
2023-03-24T07:06:09.964Z,2.50
2023-03-24T07:11:12.450Z,2.00
2023-03-24T07:16:22.221Z,2.47
2023-03-24T07:21:33.357Z,2.73
2023-03-24T07:26:36.370Z,2.53
2023-03-24T07:31:58.920Z,1.90
2023-03-24T07:37:02.196Z,2.13
2023-03-24T07:42:04.873Z,2.83
2023-03-24T07:47:27.021Z,2.43
2023-03-24T07:52:30.685Z,2.00
2023-03-24T07:57:37.181Z,2.00
2023-03-24T08:02:42.903Z,1.87
2023-03-24T08:08:14.134Z,2.30
2023-03-24T08:13:16.140Z,1.95
2023-03-24T08:18:23.359Z,2.05
2023-03-24T08:23:25.794Z,2.30
2023-03-24T08:28:27.860Z,2.00
2023-03-24T08:33:29.790Z,1.50
2023-03-24T08:38:33.108Z,1.63
2023-03-24T08:43:37.613Z,1.95
2023-03-24T08:48:43.138Z,2.03
2023-03-24T08:53:45.319Z,2.08
2023-03-24T08:58:48.763Z,2.47
2023-03-24T09:03:51.011Z,2.15
2023-03-24T09:08:54.167Z,1.83
2023-03-24T09:13:55.981Z,1.92
2023-03-24T09:18:58.139Z,2.90
2023-03-24T09:24:01.226Z,2.08
2023-03-24T09:29:03.992Z,2.28
2023-03-24T09:34:05.906Z,2.15
2023-03-24T09:39:08.865Z,1.77
2023-03-24T09:44:23.213Z,1.85
2023-03-24T09:49:30.276Z,2.13
2023-03-24T09:54:44.938Z,2.05
2023-03-24T09:59:46.854Z,1.67
2023-03-24T10:04:50.222Z,2.15
2023-03-24T10:10:01.004Z,1.63
2023-03-24T10:15:09.564Z,1.70
2023-03-24T10:20:26.780Z,1.75
2023-03-24T10:25:50.382Z,2.22
2023-03-24T10:30:55.945Z,2.20
2023-03-24T10:36:12.192Z,1.80
2023-03-24T10:41:21.235Z,2.95
2023-03-24T10:46:30.131Z,1.90
2023-03-24T10:51:36.994Z,2.13
2023-03-24T10:56:40.756Z,1.48
2023-03-24T11:01:42.949Z,1.98
2023-03-24T11:07:17.618Z,1.58
2023-03-24T11:12:29.129Z,1.83
2023-03-24T11:17:31.082Z,1.58
2023-03-24T11:22:33.231Z,1.90
2023-03-24T11:27:42.573Z,1.73
2023-03-24T11:32:48.127Z,2.45
2023-03-24T11:37:50.393Z,1.50
2023-03-24T11:42:58.175Z,2.10
2023-03-24T11:48:02.200Z,2.03
2023-03-24T11:53:13.435Z,2.03
2023-03-24T11:58:33.467Z,1.95
2023-03-24T12:03:44.804Z,1.63
2023-03-24T12:09:08.318Z,2.38
2023-03-24T12:14:10.814Z,1.80
2023-03-24T12:19:34.607Z,2.10
2023-03-24T12:25:03.575Z,1.65
2023-03-24T12:30:17.807Z,1.88
2023-03-24T12:35:57.010Z,1.70
2023-03-24T12:41:14.745Z,2.03
2023-03-24T12:46:23.014Z,2.10
2023-03-24T12:51:37.950Z,2.33
2023-03-24T12:56:55.774Z,2.10
2023-03-24T13:02:13.068Z,1.88
2023-03-24T13:07:21.540Z,1.80
2023-03-24T13:12:31.314Z,1.13
2023-03-24T13:17:39.067Z,0.95
2023-03-24T13:22:42.311Z,1.33
2023-03-24T13:27:47.494Z,1.63
2023-03-24T13:33:04.896Z,0.93
2023-03-24T13:38:18.006Z,1.02
2023-03-24T13:43:24.293Z,1.20
2023-03-24T13:48:29.710Z,1.60
2023-03-24T13:53:38.394Z,1.73
2023-03-24T13:58:58.844Z,1.40
2023-03-24T14:04:19.377Z,1.80
2023-03-24T14:09:29.817Z,1.90
2023-03-24T14:14:37.344Z,1.70
2023-03-24T14:19:42.047Z,1.50
2023-03-24T14:24:47.039Z,1.50
2023-03-24T14:29:51.160Z,1.77
2023-03-24T14:34:57.949Z,2.10
2023-03-24T14:40:00.957Z,1.60
2023-03-24T14:45:26.388Z,1.95
2023-03-24T14:50:29.687Z,1.40
2023-03-24T14:55:31.812Z,1.80
2023-03-24T15:06:17.440Z,1.50
2023-03-24T15:11:24.509Z,1.27
2023-03-24T15:16:32.377Z,1.13
2023-03-24T15:21:39.351Z,1.25
2023-03-24T15:26:41.577Z,1.52
2023-03-24T15:31:43.780Z,1.17
2023-03-24T15:36:46.426Z,1.30
2023-03-24T15:41:52.126Z,1.00
2023-03-24T15:46:59.317Z,1.15
2023-03-24T15:52:21.473Z,0.80
2023-03-24T15:57:25.784Z,0.90
2023-03-24T16:03:02.579Z,1.60
2023-03-24T16:08:07.754Z,1.55
2023-03-24T16:13:21.574Z,1.15
2023-03-24T16:18:34.002Z,1.15
2023-03-24T16:23:36.354Z,1.00
2023-03-24T16:28:38.458Z,0.68
2023-03-24T16:33:40.555Z,0.93
2023-03-24T16:38:42.795Z,1.57
2023-03-24T16:43:45.546Z,0.80
2023-03-24T16:48:48.021Z,1.33
2023-03-24T16:53:50.631Z,1.70
2023-03-24T16:58:54.482Z,1.20
2023-03-24T17:03:59.490Z,1.53
2023-03-24T17:09:01.722Z,1.33
2023-03-24T17:14:05.930Z,1.00
2023-03-24T17:19:08.220Z,0.90
2023-03-24T17:24:11.400Z,0.60
2023-03-24T17:29:14.012Z,0.60
2023-03-24T17:39:23.094Z,0.70
2023-03-24T17:44:25.265Z,0.80
2023-03-24T17:49:27.401Z,0.47
2023-03-24T17:54:30.575Z,0.50
2023-03-24T17:59:34.291Z,0.70
2023-03-24T18:04:36.694Z,0.57
2023-03-24T18:09:38.997Z,0.77
2023-03-24T18:14:41.123Z,0.60
2023-03-24T18:19:43.115Z,0.73
2023-03-24T18:24:45.062Z,0.70
2023-03-24T18:29:47.145Z,0.90
2023-03-24T18:34:49.119Z,0.73
2023-03-24T18:39:51.270Z,0.80
2023-03-24T18:44:53.540Z,0.80
2023-03-24T18:49:55.937Z,1.07
2023-03-24T18:54:57.991Z,1.30
2023-03-24T19:00:00.897Z,1.53
2023-03-24T19:05:04.547Z,1.30
2023-03-24T19:10:07.023Z,0.90
2023-03-24T19:15:09.750Z,1.63
2023-03-24T19:20:12.542Z,1.20
2023-03-24T19:25:17.791Z,0.70
2023-03-24T19:30:19.870Z,0.90
2023-03-24T19:35:22.192Z,1.03
2023-03-24T19:40:24.446Z,1.43
2023-03-24T19:45:26.467Z,2.00
2023-03-24T19:50:28.502Z,1.83
2023-03-24T19:55:31.473Z,2.80
2023-03-24T20:00:33.708Z,2.77
2023-03-24T20:05:36.852Z,3.03
2023-03-24T20:10:40.292Z,3.13
2023-03-24T20:15:42.295Z,2.63
2023-03-24T20:20:44.566Z,2.10
2023-03-24T20:25:46.435Z,2.20
2023-03-24T20:30:48.965Z,1.10
2023-03-24T20:35:51.317Z,1.20
2023-03-24T20:41:11.955Z,1.20
2023-03-24T20:46:16.811Z,1.63
2023-03-24T20:51:19.214Z,1.67
2023-03-24T20:56:21.680Z,1.60
2023-03-24T21:01:24.950Z,1.80
2023-03-24T21:06:26.967Z,2.13
2023-03-24T21:11:31.145Z,2.13
2023-03-24T21:16:37.945Z,1.70
2023-03-24T21:21:43.078Z,1.23
2023-03-24T21:26:49.608Z,1.07
2023-03-24T21:31:52.177Z,1.17
2023-03-24T21:36:55.664Z,0.87
2023-03-24T21:41:57.818Z,1.27
2023-03-24T21:47:00.788Z,1.10
2023-03-24T21:52:04.502Z,1.20
2023-03-24T21:57:06.570Z,1.27
2023-03-24T22:02:14.667Z,2.00
2023-03-24T22:07:22.439Z,1.00
2023-03-24T22:12:24.441Z,1.60
2023-03-24T22:17:26.462Z,1.30
2023-03-24T22:22:28.596Z,1.17
2023-03-24T22:27:31.010Z,1.27
2023-03-24T22:32:33.112Z,1.37
2023-03-24T22:37:35.233Z,1.10
2023-03-24T22:42:37.313Z,1.00
2023-03-24T22:47:39.336Z,1.47
2023-03-24T22:52:41.438Z,1.53
2023-03-24T22:57:43.435Z,1.33
2023-03-24T23:02:45.614Z,1.20
2023-03-24T23:07:48.798Z,1.53
2023-03-24T23:12:52.344Z,1.43
2023-03-24T23:17:54.385Z,1.43
2023-03-24T23:22:57.248Z,1.10
2023-03-24T23:27:59.338Z,1.20
2023-03-24T23:33:03.772Z,0.80
2023-03-24T23:38:06.652Z,0.80
2023-03-24T23:43:08.641Z,1.17
2023-03-24T23:48:10.937Z,1.13
2023-03-24T23:53:12.813Z,0.73
2023-03-24T23:58:14.748Z,1.30
